Time;durP1;ratioP1;P1;durP2;ratioP2;P2;SDS_P1;SDS_P2;PMS_P1;PMS_P2;Temp;Humidity;BMP_temperature;BMP_pressure;BME280_temperature;BME280_humidity;BME280_pressure;Samples;Min_cycle;Max_cycle;Signal;HPM_P1;HPM_P2
2023/12/06 00:01:44;;;;;;;0.00;0.00;;;22.90;52.20;;;;;;5015456;28;20216;-48
2023/12/06 00:04:15;;;;;;;0.00;0.00;;;22.90;52.10;;;;;;5023070;28;20203;-49
2023/12/06 00:06:46;;;;;;;0.00;0.00;;;22.90;52.10;;;;;;5024598;28;20215;-46
2023/12/06 00:09:17;;;;;;;0.05;0.05;;;22.90;52.10;;;;;;5030492;28;20199;-47
2023/12/06 00:11:47;;;;;;;0.10;0.10;;;22.90;52.10;;;;;;5030303;28;20753;-49
2023/12/06 00:14:20;;;;;;;0.00;0.00;;;22.90;52.10;;;;;;5023971;28;20560;-46
2023/12/06 00:16:51;;;;;;;0.00;0.00;;;22.90;52.00;;;;;;5011386;28;20660;-47
2023/12/06 00:19:21;;;;;;;0.00;0.00;;;22.90;52.00;;;;;;5011247;28;20197;-50
2023/12/06 00:21:52;;;;;;;0.00;0.00;;;23.00;52.00;;;;;;5013588;28;20221;-46
2023/12/06 00:24:23;;;;;;;0.10;0.10;;;23.00;51.90;;;;;;5014937;28;20201;-48
2023/12/06 00:26:54;;;;;;;0.00;0.00;;;23.10;51.90;;;;;;5014922;28;20205;-48
2023/12/06 00:29:26;;;;;;;0.10;0.10;;;23.10;51.80;;;;;;5021803;28;20533;-48
2023/12/06 00:31:57;;;;;;;0.00;0.00;;;23.10;51.80;;;;;;5034259;28;20235;-47
2023/12/06 00:34:28;;;;;;;0.00;0.00;;;23.20;51.80;;;;;;5034487;28;20207;-50
2023/12/06 00:36:58;;;;;;;0.00;0.00;;;23.20;51.80;;;;;;5029773;28;20196;-54
2023/12/06 00:39:29;;;;;;;0.00;0.00;;;23.20;51.70;;;;;;5034623;28;20195;-49
2023/12/06 00:42:00;;;;;;;0.00;0.00;;;23.30;51.70;;;;;;5027595;28;20205;-50
2023/12/06 00:44:32;;;;;;;0.00;0.00;;;23.30;51.70;;;;;;5031983;28;20196;-47
2023/12/06 00:47:03;;;;;;;0.00;0.00;;;23.30;51.80;;;;;;5033507;28;20220;-51
2023/12/06 00:49:34;;;;;;;0.00;0.00;;;23.30;51.80;;;;;;5033789;28;20192;-51
2023/12/06 00:52:04;;;;;;;0.10;0.10;;;23.30;51.80;;;;;;5033655;28;20254;-51
2023/12/06 00:54:35;;;;;;;0.00;0.00;;;23.40;51.90;;;;;;5033763;28;20465;-51
2023/12/06 00:57:06;;;;;;;0.00;0.00;;;23.40;51.90;;;;;;5033603;28;20188;-53
2023/12/06 00:59:38;;;;;;;0.00;0.00;;;23.40;51.90;;;;;;5032648;28;20192;-52
2023/12/06 01:02:09;;;;;;;0.00;0.00;;;23.40;51.90;;;;;;5033113;28;20222;-50
2023/12/06 01:04:40;;;;;;;0.00;0.00;;;23.40;51.80;;;;;;5033511;28;20207;-53
2023/12/06 01:07:11;;;;;;;0.00;0.00;;;23.50;51.90;;;;;;5033028;28;20280;-50
2023/12/06 01:09:42;;;;;;;0.00;0.00;;;23.50;52.00;;;;;;5033763;28;20211;-52
2023/12/06 01:12:12;;;;;;;0.00;0.00;;;23.50;52.00;;;;;;5033292;28;20224;-53
2023/12/06 01:14:45;;;;;;;0.00;0.00;;;23.60;52.00;;;;;;5033737;28;20200;-52
2023/12/06 01:17:16;;;;;;;0.00;0.00;;;23.60;52.00;;;;;;5032774;28;20250;-52
2023/12/06 01:19:46;;;;;;;0.00;0.00;;;23.60;51.90;;;;;;5032899;28;20192;-52
2023/12/06 01:22:17;;;;;;;0.00;0.00;;;23.70;51.90;;;;;;5033107;28;20208;-50
2023/12/06 01:24:49;;;;;;;0.00;0.00;;;23.70;51.80;;;;;;5031107;28;20200;-48
2023/12/06 01:27:20;;;;;;;0.00;0.00;;;23.70;51.80;;;;;;5032727;28;20195;-50
2023/12/06 01:29:52;;;;;;;0.00;0.00;;;23.80;51.80;;;;;;5032019;28;20565;-51
2023/12/06 01:32:23;;;;;;;0.00;0.00;;;23.80;51.80;;;;;;5031814;28;20277;-50
2023/12/06 01:34:54;;;;;;;0.10;0.10;;;23.80;51.70;;;;;;5033429;28;20201;-50
2023/12/06 01:37:24;;;;;;;0.10;0.10;;;23.80;51.70;;;;;;5032215;28;20223;-52
2023/12/06 01:39:55;;;;;;;0.00;0.00;;;23.90;51.70;;;;;;5033360;28;20192;-51
2023/12/06 01:42:26;;;;;;;0.00;0.00;;;23.90;52.30;;;;;;5032253;28;20212;-53
2023/12/06 01:44:58;;;;;;;0.00;0.00;;;23.90;51.60;;;;;;5013780;28;20209;-54
2023/12/06 01:47:32;;;;;;;0.10;0.10;;;23.90;51.60;;;;;;5020595;28;20196;-52
2023/12/06 01:50:05;;;;;;;0.00;0.00;;;24.00;51.60;;;;;;5032676;28;20196;-49
2023/12/06 01:52:35;;;;;;;0.00;0.00;;;24.00;51.60;;;;;;5032279;28;20216;-52
2023/12/06 01:55:07;;;;;;;0.00;0.00;;;24.00;51.60;;;;;;5032615;28;20199;-51
2023/12/06 01:57:38;;;;;;;0.00;0.00;;;24.00;51.60;;;;;;5032230;28;20193;-53
2023/12/06 02:00:12;;;;;;;0.00;0.00;;;24.00;51.70;;;;;;5027643;28;20188;-50
2023/12/06 02:02:43;;;;;;;0.00;0.00;;;24.00;51.60;;;;;;5033102;28;20202;-49
2023/12/06 02:05:14;;;;;;;0.00;0.00;;;24.10;51.50;;;;;;5032770;28;20196;-51
2023/12/06 02:07:45;;;;;;;0.00;0.00;;;24.10;51.40;;;;;;5031852;28;20219;-52
2023/12/06 02:10:16;;;;;;;0.00;0.00;;;24.10;51.30;;;;;;5030794;28;20188;-50
2023/12/06 02:12:47;;;;;;;0.00;0.00;;;24.20;51.30;;;;;;5029736;28;20715;-45
2023/12/06 02:15:21;;;;;;;0.00;0.00;;;24.20;51.20;;;;;;5032973;28;20218;-45
2023/12/06 02:17:52;;;;;;;0.00;0.00;;;24.20;51.10;;;;;;5031996;28;20198;-48
2023/12/06 02:20:23;;;;;;;0.00;0.00;;;24.30;51.00;;;;;;5032484;28;20200;-47
2023/12/06 02:22:56;;;;;;;0.00;0.00;;;24.30;51.00;;;;;;5031536;28;20197;-48
2023/12/06 02:25:28;;;;;;;0.00;0.00;;;24.30;51.00;;;;;;5031923;28;20204;-44
2023/12/06 02:28:00;;;;;;;0.00;0.00;;;24.40;51.10;;;;;;5031652;28;20690;-45
2023/12/06 02:30:30;;;;;;;0.00;0.00;;;24.40;51.10;;;;;;5031754;28;20220;-45
2023/12/06 02:33:01;;;;;;;0.00;0.00;;;24.50;51.20;;;;;;5030785;28;20230;-48
2023/12/06 02:35:35;;;;;;;0.00;0.00;;;24.50;51.10;;;;;;5032378;28;20192;-50
2023/12/06 02:38:07;;;;;;;0.00;0.00;;;24.50;51.20;;;;;;5031075;28;20200;-48
2023/12/06 02:40:42;;;;;;;0.00;0.00;;;24.60;51.20;;;;;;5031329;28;20231;-47
2023/12/06 02:43:14;;;;;;;0.00;0.00;;;24.60;51.20;;;;;;5031548;28;20200;-48
2023/12/06 02:45:45;;;;;;;0.00;0.00;;;24.70;51.20;;;;;;5031899;28;20196;-53
2023/12/06 02:48:18;;;;;;;0.00;0.00;;;24.70;51.20;;;;;;5032662;28;20196;-48
2023/12/06 02:50:48;;;;;;;0.00;0.00;;;24.70;51.10;;;;;;5032150;28;20216;-48
2023/12/06 02:53:19;;;;;;;0.00;0.00;;;24.80;51.00;;;;;;5031903;28;20238;-48
2023/12/06 02:55:52;;;;;;;0.00;0.00;;;24.90;51.00;;;;;;5031906;28;20204;-49
2023/12/06 02:58:22;;;;;;;0.00;0.00;;;24.90;50.90;;;;;;5031685;28;20478;-47
2023/12/06 03:00:53;;;;;;;0.00;0.00;;;24.90;50.70;;;;;;5028206;28;20696;-48
2023/12/06 03:03:24;;;;;;;0.00;0.00;;;25.00;50.50;;;;;;5030524;28;20196;-46
2023/12/06 03:05:54;;;;;;;0.00;0.00;;;25.00;50.30;;;;;;5031148;28;20203;-46
2023/12/06 03:08:25;;;;;;;0.00;0.00;;;25.10;50.20;;;;;;5031699;28;20207;-47
2023/12/06 03:10:58;;;;;;;0.00;0.00;;;25.10;50.10;;;;;;5029841;28;20204;-48
2023/12/06 03:13:28;;;;;;;0.05;0.05;;;25.20;50.10;;;;;;5023110;28;20702;-48
2023/12/06 03:15:59;;;;;;;0.00;0.00;;;25.20;50.50;;;;;;5031582;28;20197;-47
2023/12/06 03:18:30;;;;;;;0.00;0.00;;;25.30;50.00;;;;;;5031653;28;20275;-48
2023/12/06 03:21:01;;;;;;;0.00;0.00;;;25.30;49.00;;;;;;5030996;28;20792;-46
2023/12/06 03:23:31;;;;;;;0.10;0.10;;;25.30;46.90;;;;;;5031420;28;20196;-49
2023/12/06 03:26:04;;;;;;;0.00;0.00;;;25.30;46.70;;;;;;5031155;28;20203;-53
2023/12/06 03:28:35;;;;;;;0.08;0.08;;;25.30;47.00;;;;;;5030280;28;20195;-52
2023/12/06 03:31:05;;;;;;;0.03;0.03;;;25.30;47.10;;;;;;5019485;28;20217;-50
2023/12/06 03:33:36;;;;;;;0.00;0.00;;;25.30;47.10;;;;;;5011086;28;20244;-50
2023/12/06 03:36:07;;;;;;;0.00;0.00;;;25.30;47.10;;;;;;5027389;28;20579;-50
2023/12/06 03:38:38;;;;;;;0.00;0.00;;;25.30;47.00;;;;;;5030307;28;20207;-50
2023/12/06 03:41:12;;;;;;;0.00;0.00;;;25.30;47.00;;;;;;5030498;28;20212;-48
2023/12/06 03:43:42;;;;;;;0.00;0.00;;;25.30;47.00;;;;;;5030894;28;20204;-52
2023/12/06 03:46:13;;;;;;;0.00;0.00;;;25.30;47.30;;;;;;5031634;28;20671;-51
2023/12/06 03:48:44;;;;;;;0.00;0.00;;;25.40;47.00;;;;;;5030736;28;20204;-50
2023/12/06 03:51:14;;;;;;;0.00;0.00;;;25.40;46.40;;;;;;5029985;28;20248;-50
2023/12/06 03:53:45;;;;;;;0.00;0.00;;;25.40;46.10;;;;;;5029756;28;20235;-45
2023/12/06 03:56:18;;;;;;;0.00;0.00;;;25.50;46.10;;;;;;5031022;28;20207;-50
2023/12/06 03:58:48;;;;;;;0.00;0.00;;;25.50;46.00;;;;;;5030389;28;20192;-50
2023/12/06 04:01:19;;;;;;;0.00;0.00;;;25.50;45.90;;;;;;5033797;28;20575;-49
2023/12/06 04:03:50;;;;;;;0.00;0.00;;;25.50;45.80;;;;;;5020989;28;20200;-53
2023/12/06 04:06:21;;;;;;;0.00;0.00;;;25.60;45.80;;;;;;5029168;28;20192;-50
2023/12/06 04:08:51;;;;;;;0.00;0.00;;;25.60;45.90;;;;;;5033691;28;20204;-52
2023/12/06 04:11:24;;;;;;;0.00;0.00;;;25.60;45.80;;;;;;5034634;28;20212;-50
2023/12/06 04:13:54;;;;;;;0.00;0.00;;;25.70;45.80;;;;;;5033996;28;20224;-47
2023/12/06 04:16:25;;;;;;;0.00;0.00;;;25.70;45.90;;;;;;5034237;28;20538;-49
2023/12/06 04:18:56;;;;;;;0.00;0.00;;;25.70;45.90;;;;;;5034214;28;20201;-51
2023/12/06 04:21:27;;;;;;;0.00;0.00;;;25.80;46.00;;;;;;5034331;28;20239;-50
2023/12/06 04:23:58;;;;;;;0.00;0.00;;;25.80;46.00;;;;;;5033748;28;20666;-49
2023/12/06 04:26:31;;;;;;;0.00;0.00;;;25.80;45.90;;;;;;5032586;28;20384;-52
2023/12/06 04:29:01;;;;;;;0.00;0.00;;;25.90;46.00;;;;;;5033850;28;20196;-49
2023/12/06 04:31:32;;;;;;;0.00;0.00;;;25.90;45.90;;;;;;5033906;28;20212;-50
2023/12/06 04:34:03;;;;;;;0.00;0.00;;;25.90;46.10;;;;;;5033486;28;20252;-52
2023/12/06 04:36:33;;;;;;;0.00;0.00;;;25.90;46.10;;;;;;5033866;28;20644;-50
2023/12/06 04:39:04;;;;;;;0.00;0.00;;;26.00;46.00;;;;;;5014244;28;20200;-50
2023/12/06 04:41:37;;;;;;;0.00;0.00;;;26.00;45.80;;;;;;5031064;28;20220;-49
2023/12/06 04:44:07;;;;;;;0.00;0.00;;;26.00;45.70;;;;;;5034031;28;20200;-47
2023/12/06 04:46:38;;;;;;;0.00;0.00;;;26.10;45.60;;;;;;5032920;28;20708;-50
2023/12/06 04:49:09;;;;;;;0.00;0.00;;;26.10;45.50;;;;;;5034321;28;20200;-52
2023/12/06 04:51:39;;;;;;;0.00;0.00;;;26.20;45.60;;;;;;5033286;28;20243;-51
2023/12/06 04:54:10;;;;;;;0.00;0.00;;;26.20;45.40;;;;;;5033506;28;20216;-50
2023/12/06 04:56:43;;;;;;;0.00;0.00;;;26.20;45.30;;;;;;5032874;28;20188;-49
2023/12/06 04:59:13;;;;;;;0.00;0.00;;;26.20;45.20;;;;;;5033332;28;20202;-48
2023/12/06 05:01:45;;;;;;;0.00;0.00;;;26.30;45.30;;;;;;5033236;28;20754;-51
2023/12/06 05:04:16;;;;;;;0.00;0.00;;;26.30;45.20;;;;;;5032586;28;20196;-47
2023/12/06 05:06:47;;;;;;;0.00;0.00;;;26.40;45.10;;;;;;5033199;28;20640;-48
2023/12/06 05:09:17;;;;;;;0.00;0.00;;;26.40;45.00;;;;;;5032787;28;20196;-50
2023/12/06 05:11:50;;;;;;;0.00;0.00;;;26.40;45.20;;;;;;5032820;28;20220;-50
2023/12/06 05:14:21;;;;;;;0.00;0.00;;;26.40;45.20;;;;;;5033716;28;20235;-52
2023/12/06 05:16:52;;;;;;;0.00;0.00;;;26.40;45.30;;;;;;5032498;28;20203;-52
2023/12/06 05:19:22;;;;;;;0.00;0.00;;;26.40;45.30;;;;;;5033221;28;20204;-50
2023/12/06 05:21:53;;;;;;;0.00;0.00;;;26.40;45.40;;;;;;5033081;28;20571;-48
2023/12/06 05:24:24;;;;;;;0.00;0.00;;;26.50;45.50;;;;;;5032252;28;20246;-48
2023/12/06 05:26:57;;;;;;;0.00;0.00;;;26.50;45.50;;;;;;5032746;28;20244;-49
2023/12/06 05:29:28;;;;;;;0.00;0.00;;;26.50;45.40;;;;;;5033464;28;20231;-52
2023/12/06 05:31:59;;;;;;;0.00;0.00;;;26.50;45.40;;;;;;5032458;28;20239;-50
2023/12/06 05:34:30;;;;;;;0.00;0.00;;;26.50;45.30;;;;;;5015076;28;20224;-47
2023/12/06 05:37:00;;;;;;;0.00;0.00;;;26.50;45.80;;;;;;5030441;28;20283;-45
2023/12/06 05:39:31;;;;;;;0.00;0.00;;;26.50;45.10;;;;;;5032464;28;20524;-53
2023/12/06 05:42:04;;;;;;;0.00;0.00;;;26.50;45.10;;;;;;5031744;28;20212;-50
2023/12/06 05:44:34;;;;;;;0.00;0.00;;;26.50;45.00;;;;;;5032373;28;20211;-51
2023/12/06 05:47:05;;;;;;;0.00;0.00;;;26.50;44.90;;;;;;5032635;28;20203;-50
2023/12/06 05:49:36;;;;;;;0.00;0.00;;;26.60;45.50;;;;;;5031950;28;20250;-44
2023/12/06 05:52:07;;;;;;;0.00;0.00;;;26.60;44.90;;;;;;5032639;28;20216;-50
2023/12/06 05:54:38;;;;;;;0.00;0.00;;;26.60;45.00;;;;;;5029155;28;20228;-52
2023/12/06 05:57:11;;;;;;;0.00;0.00;;;26.60;45.10;;;;;;5031982;28;20212;-51
2023/12/06 05:59:42;;;;;;;0.00;0.00;;;26.60;45.10;;;;;;5032351;28;20237;-52
2023/12/06 06:02:13;;;;;;;0.00;0.00;;;26.60;45.10;;;;;;5031033;28;20216;-53
2023/12/06 06:04:44;;;;;;;0.00;0.00;;;26.70;45.10;;;;;;5031580;28;20200;-50
2023/12/06 06:07:14;;;;;;;0.00;0.00;;;26.70;45.10;;;;;;5031828;28;20196;-52
2023/12/06 06:09:45;;;;;;;0.00;0.00;;;26.60;45.10;;;;;;5029916;28;20290;-50
2023/12/06 06:12:18;;;;;;;0.00;0.00;;;26.70;45.20;;;;;;5031620;28;20227;-51
2023/12/06 06:14:48;;;;;;;0.00;0.00;;;26.70;45.10;;;;;;5032621;28;20223;-49
2023/12/06 06:17:19;;;;;;;0.00;0.00;;;26.70;45.20;;;;;;5030979;28;20227;-47
2023/12/06 06:19:50;;;;;;;0.00;0.00;;;26.70;45.00;;;;;;5030999;28;20208;-48
2023/12/06 06:22:20;;;;;;;0.00;0.00;;;26.70;44.80;;;;;;5031648;28;20215;-51
2023/12/06 06:24:51;;;;;;;0.00;0.00;;;26.80;44.70;;;;;;5032147;28;20203;-51
2023/12/06 06:27:24;;;;;;;0.00;0.00;;;26.80;44.70;;;;;;5031296;28;20671;-50
2023/12/06 06:29:54;;;;;;;0.00;0.00;;;26.80;44.60;;;;;;5031664;28;20196;-46
2023/12/06 06:32:26;;;;;;;0.00;0.00;;;26.80;44.60;;;;;;5031725;28;20239;-48
2023/12/06 06:34:56;;;;;;;0.00;0.00;;;26.80;44.40;;;;;;5032068;28;20282;-47
2023/12/06 06:37:27;;;;;;;0.00;0.00;;;26.90;44.40;;;;;;5031315;28;20211;-50
2023/12/06 06:39:58;;;;;;;0.00;0.00;;;26.80;44.20;;;;;;5031218;28;20207;-50
2023/12/06 06:42:30;;;;;;;0.00;0.00;;;26.90;44.30;;;;;;5027239;28;20220;-49
2023/12/06 06:45:02;;;;;;;0.00;0.00;;;26.90;44.40;;;;;;5011590;28;20215;-48
2023/12/06 06:47:32;;;;;;;0.00;0.00;;;26.90;44.40;;;;;;5029652;28;20193;-48
2023/12/06 06:50:03;;;;;;;0.00;0.00;;;26.90;44.30;;;;;;5031149;28;20188;-47
2023/12/06 06:52:36;;;;;;;0.00;0.00;;;27.00;44.20;;;;;;5031298;28;20188;-47
2023/12/06 06:55:08;;;;;;;0.00;0.00;;;27.00;44.20;;;;;;5030788;28;20220;-53
2023/12/06 06:57:41;;;;;;;0.00;0.00;;;27.00;43.90;;;;;;5030116;28;20191;-53
2023/12/06 07:00:13;;;;;;;0.00;0.00;;;27.00;43.80;;;;;;5030507;28;20219;-49
2023/12/06 07:02:43;;;;;;;0.00;0.00;;;27.00;43.80;;;;;;5030957;28;20195;-49
2023/12/06 07:05:14;;;;;;;0.00;0.00;;;27.00;43.90;;;;;;5031322;28;20192;-50
2023/12/06 07:07:45;;;;;;;0.00;0.00;;;27.00;44.00;;;;;;5031049;28;20199;-49
2023/12/06 07:10:16;;;;;;;0.00;0.00;;;26.90;43.90;;;;;;5030743;28;20191;-47
2023/12/06 07:12:48;;;;;;;0.00;0.00;;;27.00;43.90;;;;;;5030539;28;20196;-50
2023/12/06 07:15:19;;;;;;;0.00;0.00;;;26.90;43.90;;;;;;5030404;28;20234;-49
2023/12/06 07:17:50;;;;;;;0.00;0.00;;;27.00;43.90;;;;;;5031021;28;20756;-47
2023/12/06 07:20:22;;;;;;;0.00;0.00;;;26.90;44.00;;;;;;5030765;28;20745;-47
2023/12/06 07:22:54;;;;;;;0.00;0.00;;;27.00;44.00;;;;;;5030465;28;20262;-52
2023/12/06 07:25:25;;;;;;;0.00;0.00;;;26.90;44.00;;;;;;5029900;28;20227;-51
2023/12/06 07:27:58;;;;;;;0.00;0.00;;;27.00;44.10;;;;;;5029388;28;20207;-47
2023/12/06 07:30:29;;;;;;;0.00;0.00;;;26.90;44.00;;;;;;5028668;28;20227;-47
2023/12/06 07:33:02;;;;;;;0.00;0.00;;;26.90;44.10;;;;;;5031196;28;20227;-48
2023/12/06 07:35:32;;;;;;;0.00;0.00;;;26.90;43.90;;;;;;5031112;28;20223;-53
2023/12/06 07:38:05;;;;;;;0.00;0.00;;;26.90;43.70;;;;;;5031154;28;20200;-48
2023/12/06 07:40:35;;;;;;;0.00;0.00;;;26.90;43.40;;;;;;5030921;28;20222;-50
2023/12/06 07:43:08;;;;;;;0.00;0.00;;;26.80;43.10;;;;;;5030617;28;20196;-51
2023/12/06 07:45:39;;;;;;;0.00;0.00;;;26.90;43.00;;;;;;5030283;28;20239;-53
2023/12/06 07:48:09;;;;;;;0.00;0.00;;;26.80;42.70;;;;;;5030429;28;20196;-53
2023/12/06 07:50:40;;;;;;;0.00;0.00;;;26.80;42.60;;;;;;5030642;28;20702;-53
2023/12/06 07:53:12;;;;;;;0.00;0.00;;;26.80;42.50;;;;;;5031104;28;20652;-51
2023/12/06 07:55:43;;;;;;;0.00;0.00;;;26.70;42.40;;;;;;5031141;28;20250;-51
2023/12/06 07:58:19;;;;;;;0.00;0.00;;;26.70;43.00;;;;;;5028431;28;20282;-50
2023/12/06 08:00:49;;;;;;;0.00;0.00;;;26.70;42.20;;;;;;5010780;28;20232;-49
2023/12/06 08:03:21;;;;;;;0.00;0.00;;;26.70;42.30;;;;;;5025402;28;20659;-52
2023/12/06 08:05:51;;;;;;;0.00;0.00;;;26.60;42.30;;;;;;5028875;28;20242;-53
2023/12/06 08:08:22;;;;;;;0.00;0.00;;;26.60;42.30;;;;;;5029339;28;20208;-49
2023/12/06 08:10:53;;;;;;;0.00;0.00;;;26.60;42.30;;;;;;5030842;28;20216;-50
2023/12/06 08:13:26;;;;;;;0.00;0.00;;;26.60;42.30;;;;;;5030550;28;20207;-49
2023/12/06 08:15:56;;;;;;;0.00;0.00;;;26.60;42.30;;;;;;5031050;28;20215;-49
2023/12/06 08:18:27;;;;;;;0.00;0.00;;;26.50;42.10;;;;;;5030649;28;20198;-48
2023/12/06 08:20:58;;;;;;;0.00;0.00;;;26.50;42.00;;;;;;5030954;28;20213;-52
2023/12/06 08:23:28;;;;;;;0.00;0.00;;;26.50;41.80;;;;;;5026261;28;20524;-50
2023/12/06 08:25:59;;;;;;;0.00;0.00;;;26.50;41.80;;;;;;5029586;28;20196;-47
2023/12/06 08:28:32;;;;;;;0.00;0.00;;;26.50;41.80;;;;;;5026866;28;20211;-48
2023/12/06 08:31:03;;;;;;;0.00;0.00;;;26.40;41.70;;;;;;5029452;28;20216;-50
2023/12/06 08:33:33;;;;;;;0.00;0.00;;;26.40;41.60;;;;;;5030432;28;20246;-50
2023/12/06 08:36:04;;;;;;;0.00;0.00;;;26.40;41.60;;;;;;5029699;28;20208;-48
2023/12/06 08:38:35;;;;;;;0.00;0.00;;;26.30;41.50;;;;;;5027296;28;20188;-49
2023/12/06 08:41:07;;;;;;;0.00;0.00;;;26.30;41.50;;;;;;5029680;28;20582;-47
2023/12/06 08:43:40;;;;;;;0.00;0.00;;;26.30;41.50;;;;;;5033062;28;20238;-50
2023/12/06 08:46:11;;;;;;;0.00;0.00;;;26.30;41.50;;;;;;5034141;28;20250;-50
2023/12/06 08:48:42;;;;;;;0.00;0.00;;;26.30;41.60;;;;;;5033653;28;20558;-50
2023/12/06 08:51:13;;;;;;;0.00;0.00;;;26.20;41.50;;;;;;5032796;28;20223;-48
2023/12/06 08:53:43;;;;;;;0.00;0.00;;;26.20;41.50;;;;;;5032857;28;20199;-49
2023/12/06 08:56:15;;;;;;;0.00;0.00;;;26.20;41.50;;;;;;5033651;28;20211;-47
2023/12/06 08:58:47;;;;;;;0.00;0.00;;;26.10;41.50;;;;;;5033050;28;20246;-50
2023/12/06 09:01:19;;;;;;;0.00;0.00;;;26.10;41.50;;;;;;5033025;28;20227;-51
2023/12/06 09:03:49;;;;;;;0.00;0.00;;;26.10;41.50;;;;;;5033526;28;20196;-52
2023/12/06 09:06:20;;;;;;;0.00;0.00;;;26.10;41.50;;;;;;5032692;28;20192;-47
2023/12/06 09:08:51;;;;;;;0.00;0.00;;;26.00;41.50;;;;;;5031999;28;20196;-49
2023/12/06 09:11:25;;;;;;;0.00;0.00;;;26.00;41.50;;;;;;5032253;28;20227;-51
2023/12/06 09:13:57;;;;;;;0.00;0.00;;;26.00;41.40;;;;;;5031131;28;20199;-50
2023/12/06 09:16:28;;;;;;;0.00;0.00;;;26.00;41.40;;;;;;5033372;28;20250;-50
2023/12/06 09:18:59;;;;;;;0.00;0.00;;;25.90;41.30;;;;;;5032656;28;20683;-51
2023/12/06 09:21:40;;;;;;;0.00;0.00;;;25.90;41.30;;;;;;5032920;28;20220;-49
2023/12/06 09:24:12;;;;;;;0.00;0.00;;;25.90;41.30;;;;;;5033392;28;20203;-49
2023/12/06 09:26:43;;;;;;;0.00;0.00;;;25.90;41.20;;;;;;5032114;28;20200;-49
2023/12/06 09:29:15;;;;;;;0.00;0.00;;;25.80;41.20;;;;;;5032022;28;20189;-51
2023/12/06 09:31:48;;;;;;;0.00;0.00;;;25.80;41.20;;;;;;5032959;28;20609;-50
2023/12/06 09:34:18;;;;;;;0.00;0.00;;;25.80;41.20;;;;;;5031858;28;20219;-49
2023/12/06 09:36:49;;;;;;;0.00;0.00;;;25.70;41.10;;;;;;5030481;28;20192;-51
2023/12/06 09:39:22;;;;;;;0.00;0.00;;;25.70;41.10;;;;;;5032183;28;20214;-50
2023/12/06 09:41:53;;;;;;;0.00;0.00;;;25.70;41.10;;;;;;5032942;28;20224;-50
2023/12/06 09:44:26;;;;;;;0.00;0.00;;;25.60;41.10;;;;;;5031102;28;20219;-50
2023/12/06 09:46:58;;;;;;;0.00;0.00;;;25.60;41.10;;;;;;5033105;28;20644;-47
2023/12/06 09:49:29;;;;;;;0.00;0.00;;;25.60;41.10;;;;;;5032072;28;20239;-49
2023/12/06 09:52:07;;;;;;;0.00;0.00;;;25.60;41.10;;;;;;5031795;28;20216;-48
2023/12/06 09:54:42;;;;;;;0.00;0.00;;;25.50;41.10;;;;;;5031232;28;20216;-49
2023/12/06 09:57:13;;;;;;;0.00;0.00;;;25.50;41.10;;;;;;5032387;28;20600;-49
2023/12/06 09:59:46;;;;;;;0.00;0.00;;;25.50;41.10;;;;;;5028927;28;20555;-50
2023/12/06 10:02:17;;;;;;;0.00;0.00;;;25.50;41.70;;;;;;5030596;28;20235;-48
2023/12/06 10:04:47;;;;;;;0.00;0.00;;;25.50;41.20;;;;;;5020430;28;20276;-49
2023/12/06 10:07:18;;;;;;;0.00;0.00;;;25.40;41.10;;;;;;5017720;28;20223;-51
2023/12/06 10:09:53;;;;;;;0.00;0.00;;;25.40;41.10;;;;;;5032002;28;20223;-48
2023/12/06 10:12:23;;;;;;;0.00;0.00;;;25.40;41.10;;;;;;5027927;28;20207;-48
2023/12/06 10:15:03;;;;;;;0.00;0.00;;;25.40;41.10;;;;;;5031203;28;20231;-47
2023/12/06 10:17:34;;;;;;;0.00;0.00;;;25.30;41.70;;;;;;5032556;28;20196;-48
2023/12/06 10:20:05;;;;;;;0.00;0.00;;;25.30;41.10;;;;;;5032186;28;20191;-51
2023/12/06 10:22:37;;;;;;;0.00;0.00;;;25.30;41.00;;;;;;5032355;28;20196;-48
2023/12/06 10:25:09;;;;;;;0.00;0.00;;;25.30;41.00;;;;;;5032225;28;20202;-50
2023/12/06 10:27:41;;;;;;;0.00;0.00;;;25.20;41.00;;;;;;5032454;28;20717;-52
2023/12/06 10:30:21;;;;;;;0.00;0.00;;;25.20;41.00;;;;;;5027677;28;20291;-50
2023/12/06 10:32:53;;;;;;;0.00;0.00;;;25.20;41.00;;;;;;5031799;28;20203;-51
2023/12/06 10:35:26;;;;;;;0.00;0.00;;;25.10;41.00;;;;;;5030927;28;20228;-49
2023/12/06 10:37:57;;;;;;;0.00;0.00;;;25.10;41.00;;;;;;5031362;28;20200;-47
2023/12/06 10:40:29;;;;;;;0.00;0.00;;;25.10;41.10;;;;;;5030832;28;20220;-50
2023/12/06 10:43:06;;;;;;;0.00;0.00;;;25.10;41.20;;;;;;5031741;28;20212;-48
2023/12/06 10:45:38;;;;;;;0.00;0.00;;;25.00;41.10;;;;;;5031474;28;20195;-48
2023/12/06 10:48:10;;;;;;;0.00;0.00;;;25.00;41.20;;;;;;5031340;28;20679;-43
2023/12/06 10:50:42;;;;;;;0.00;0.00;;;25.00;41.20;;;;;;5032072;28;20718;-49
2023/12/06 10:53:16;;;;;;;0.00;0.00;;;25.00;41.20;;;;;;5029205;28;20188;-52
2023/12/06 10:55:48;;;;;;;0.00;0.00;;;24.90;41.20;;;;;;5030802;28;20231;-47
2023/12/06 10:58:19;;;;;;;0.00;0.00;;;24.90;41.30;;;;;;5030578;28;20254;-44
2023/12/06 11:00:53;;;;;;;0.00;0.00;;;24.90;41.30;;;;;;5031788;28;20212;-50
2023/12/06 11:03:23;;;;;;;0.00;0.00;;;24.90;41.30;;;;;;5031437;28;20192;-49
2023/12/06 11:05:58;;;;;;;0.00;0.00;;;24.90;41.30;;;;;;5030527;28;20584;-51
2023/12/06 11:08:47;;;;;;;0.00;0.00;;;24.90;41.30;;;;;;5031180;28;20211;-43
2023/12/06 11:11:47;;;;;;;0.00;0.00;;;24.80;41.30;;;;;;5031203;28;20216;-44
2023/12/06 11:14:34;;;;;;;0.00;0.00;;;24.80;42.00;;;;;;5031072;28;20189;-48
2023/12/06 11:17:20;;;;;;;0.00;0.00;;;24.80;41.40;;;;;;5029148;28;20203;-47
2023/12/06 11:19:51;;;;;;;0.00;0.00;;;24.70;41.40;;;;;;5021237;28;20572;-43
2023/12/06 11:22:26;;;;;;;0.00;0.00;;;24.70;41.40;;;;;;5031530;28;20209;-46
2023/12/06 11:24:56;;;;;;;0.00;0.00;;;24.70;41.40;;;;;;5030769;28;20199;-45
2023/12/06 11:27:27;;;;;;;0.10;0.10;;;24.70;41.40;;;;;;5030859;28;20203;-46
2023/12/06 11:29:58;;;;;;;0.00;0.00;;;24.60;41.50;;;;;;5030738;28;20196;-46
2023/12/06 11:32:44;;;;;;;0.00;0.00;;;24.60;41.60;;;;;;5029127;28;20227;-47
2023/12/06 11:35:15;;;;;;;0.00;0.00;;;24.60;41.60;;;;;;5023003;28;20701;-47
2023/12/06 11:37:55;;;;;;;0.00;0.00;;;24.60;41.60;;;;;;5030348;28;20216;-47
2023/12/06 11:40:27;;;;;;;0.00;0.00;;;24.50;41.60;;;;;;5030986;28;20246;-48
2023/12/06 11:43:03;;;;;;;0.00;0.00;;;24.50;41.60;;;;;;5018537;28;20657;-49
2023/12/06 11:45:35;;;;;;;0.00;0.00;;;24.50;41.60;;;;;;5025262;28;20223;-47
2023/12/06 11:48:08;;;;;;;0.00;0.00;;;24.50;41.60;;;;;;5030303;28;20193;-47
2023/12/06 11:50:47;;;;;;;0.00;0.00;;;24.50;41.60;;;;;;5030456;28;20211;-48
2023/12/06 11:53:19;;;;;;;0.03;0.03;;;24.40;41.50;;;;;;5027503;28;20192;-46
2023/12/06 11:55:50;;;;;;;0.00;0.00;;;24.40;41.60;;;;;;5029941;28;20220;-48
2023/12/06 11:58:22;;;;;;;0.00;0.00;;;24.40;41.60;;;;;;5025852;28;20199;-50
2023/12/06 12:00:53;;;;;;;0.00;0.00;;;24.40;41.70;;;;;;5030070;28;20208;-46
2023/12/06 12:03:27;;;;;;;0.00;0.00;;;24.30;41.60;;;;;;5030511;28;20196;-50
2023/12/06 12:05:58;;;;;;;0.00;0.00;;;24.30;41.60;;;;;;5027860;28;20561;-50
2023/12/06 12:08:30;;;;;;;0.00;0.00;;;24.30;41.70;;;;;;5030407;28;20207;-48
2023/12/06 12:11:02;;;;;;;0.00;0.00;;;24.30;41.70;;;;;;5026906;28;20676;-49
2023/12/06 12:13:38;;;;;;;0.00;0.00;;;24.20;41.70;;;;;;5028590;28;20192;-49
2023/12/06 12:16:10;;;;;;;0.00;0.00;;;24.30;41.70;;;;;;5030265;28;20226;-48
2023/12/06 12:18:42;;;;;;;0.00;0.00;;;24.20;41.70;;;;;;5031290;28;20349;-50
2023/12/06 12:21:16;;;;;;;0.00;0.00;;;24.20;41.90;;;;;;5033497;28;20267;-48
2023/12/06 12:23:48;;;;;;;0.10;0.10;;;24.20;41.90;;;;;;5030941;28;20193;-50
2023/12/06 12:26:20;;;;;;;0.05;0.05;;;24.20;41.90;;;;;;5032341;28;20656;-50
2023/12/06 12:28:50;;;;;;;0.00;0.00;;;24.20;41.90;;;;;;5033207;28;20193;-50
2023/12/06 12:31:23;;;;;;;0.00;0.00;;;24.20;42.00;;;;;;5033567;28;20208;-50
2023/12/06 12:33:56;;;;;;;0.00;0.00;;;24.10;41.90;;;;;;5034608;28;20207;-51
2023/12/06 12:36:27;;;;;;;0.10;0.10;;;24.10;42.00;;;;;;5033281;28;20231;-48
2023/12/06 12:38:58;;;;;;;0.00;0.00;;;24.10;42.00;;;;;;5033373;28;20204;-51
2023/12/06 12:41:29;;;;;;;0.00;0.00;;;24.10;42.00;;;;;;5033700;28;20227;-49
2023/12/06 12:44:02;;;;;;;0.00;0.00;;;24.10;42.00;;;;;;5033519;28;20208;-48
2023/12/06 12:46:35;;;;;;;0.00;0.00;;;24.00;42.00;;;;;;5032553;28;20192;-51
2023/12/06 12:49:08;;;;;;;0.10;0.10;;;24.00;42.00;;;;;;5033911;28;20192;-51
2023/12/06 12:51:39;;;;;;;0.00;0.00;;;24.00;42.00;;;;;;5034192;28;20216;-51
2023/12/06 12:54:17;;;;;;;0.00;0.00;;;24.00;42.00;;;;;;5034215;28;20196;-47
2023/12/06 12:56:47;;;;;;;0.00;0.00;;;24.00;42.10;;;;;;5033283;28;20220;-50
2023/12/06 12:59:21;;;;;;;0.00;0.00;;;23.90;42.00;;;;;;5033755;28;20204;-49
2023/12/06 13:01:52;;;;;;;0.00;0.00;;;23.90;42.00;;;;;;5034175;28;20224;-45
2023/12/06 13:04:24;;;;;;;0.00;0.00;;;23.90;42.10;;;;;;5034327;28;20207;-46
2023/12/06 13:06:57;;;;;;;0.00;0.00;;;23.90;42.20;;;;;;5033835;28;20200;-46
2023/12/06 13:09:30;;;;;;;0.00;0.00;;;23.80;42.20;;;;;;5034171;28;20235;-49
2023/12/06 13:12:01;;;;;;;0.00;0.00;;;23.80;42.20;;;;;;5034039;28;20735;-47